createdAt,value
2023-01-26T00:01:27.761Z,98056.28
2023-01-26T00:03:54.506Z,98059.66
2023-01-26T00:06:22.284Z,98058.69
2023-01-26T00:08:51.430Z,98057.50
2023-01-26T00:11:30.246Z,98054.28
2023-01-26T00:13:58.764Z,98047.44
2023-01-26T00:16:26.408Z,98045.25
2023-01-26T00:18:54.035Z,98039.81
2023-01-26T00:21:22.185Z,98033.41
2023-01-26T00:23:50.297Z,98032.69
2023-01-26T00:26:19.504Z,98042.00
2023-01-26T00:28:46.313Z,98036.38
2023-01-26T00:31:15.710Z,98036.72
2023-01-26T00:33:42.458Z,98031.56
2023-01-26T00:36:09.447Z,98036.47
2023-01-26T00:38:36.063Z,98037.22
2023-01-26T00:41:02.748Z,98034.78
2023-01-26T00:43:29.548Z,98031.13
2023-01-26T00:45:56.309Z,98030.63
2023-01-26T00:48:24.648Z,98019.41
2023-01-26T00:50:52.851Z,98019.63
2023-01-26T00:53:19.956Z,98020.34
2023-01-26T00:55:46.582Z,98022.53
2023-01-26T00:58:13.348Z,98024.44
2023-01-26T01:00:40.044Z,98028.63
2023-01-26T01:03:07.406Z,98023.03
2023-01-26T01:05:34.853Z,98029.41
2023-01-26T01:08:01.973Z,98028.91
2023-01-26T01:10:28.977Z,98015.91
2023-01-26T01:12:56.702Z,98027.91
2023-01-26T01:15:24.183Z,98023.97
2023-01-26T01:17:51.192Z,98023.75
2023-01-26T01:20:17.996Z,98024.16
2023-01-26T01:22:44.789Z,98013.41
2023-01-26T01:25:11.549Z,98017.00
2023-01-26T01:27:38.197Z,98021.66
2023-01-26T01:30:08.083Z,98017.28
2023-01-26T01:32:39.966Z,98014.09
2023-01-26T01:35:07.549Z,98016.53
2023-01-26T01:37:34.220Z,98014.38
2023-01-26T01:40:00.917Z,98015.81
2023-01-26T01:42:28.145Z,98002.34
2023-01-26T01:45:32.101Z,98007.69
2023-01-26T01:48:03.794Z,98005.03
2023-01-26T01:50:37.291Z,98005.28
2023-01-26T01:53:05.582Z,97998.38
2023-01-26T01:55:32.579Z,98007.19
2023-01-26T01:58:01.628Z,98003.00
2023-01-26T02:00:29.063Z,98001.31
2023-01-26T02:03:19.398Z,97993.97
2023-01-26T02:05:54.985Z,97997.66
2023-01-26T02:08:27.061Z,97990.56
2023-01-26T02:10:58.391Z,97980.31
2023-01-26T02:13:26.440Z,97983.03
2023-01-26T02:15:53.645Z,97977.63
2023-01-26T02:18:20.422Z,97983.97
2023-01-26T02:20:51.799Z,97979.84
2023-01-26T02:23:22.502Z,97980.59
2023-01-26T02:26:12.372Z,97971.50
2023-01-26T02:28:39.914Z,97968.06
2023-01-26T02:31:07.931Z,97961.19
2023-01-26T02:33:35.341Z,97964.41
2023-01-26T02:36:03.465Z,97957.78
2023-01-26T02:38:59.185Z,97944.75
2023-01-26T02:41:44.586Z,97950.66
2023-01-26T02:44:12.724Z,97947.50
2023-01-26T02:46:39.719Z,97939.88
2023-01-26T02:49:25.080Z,97935.72
2023-01-26T02:51:51.728Z,97940.66
2023-01-26T02:54:36.972Z,97944.06
2023-01-26T02:57:03.638Z,97941.66
2023-01-26T02:59:30.240Z,97929.66
2023-01-26T03:01:58.232Z,97929.16
2023-01-26T03:04:25.135Z,97926.97
2023-01-26T03:06:52.020Z,97931.84
2023-01-26T03:09:18.737Z,97933.34
2023-01-26T03:11:45.402Z,97929.47
2023-01-26T03:14:13.559Z,97931.16
2023-01-26T03:16:40.652Z,97930.91
2023-01-26T03:19:28.311Z,97931.88
2023-01-26T03:22:13.880Z,97924.31
2023-01-26T03:24:59.387Z,97925.78
2023-01-26T03:27:29.124Z,97925.31
2023-01-26T03:29:57.161Z,97931.38
2023-01-26T03:32:25.242Z,97927.69
2023-01-26T03:34:52.121Z,97922.28
2023-01-26T03:37:22.700Z,97931.09
2023-01-26T03:40:11.029Z,97937.72
2023-01-26T03:42:57.047Z,97933.31
2023-01-26T03:45:42.577Z,97928.91
2023-01-26T03:48:30.708Z,97921.59
2023-01-26T03:51:16.474Z,97930.66
2023-01-26T03:54:02.282Z,97924.28
2023-01-26T03:56:32.987Z,97929.94
2023-01-26T03:59:12.948Z,97923.31
2023-01-26T04:02:03.314Z,97926.00
2023-01-26T04:04:48.257Z,97922.81
2023-01-26T04:07:33.861Z,97930.88
2023-01-26T04:10:00.545Z,97917.16
2023-01-26T04:12:27.174Z,97921.31
2023-01-26T04:15:12.527Z,97926.47
2023-01-26T04:17:57.751Z,97912.75
2023-01-26T04:20:43.128Z,97905.91
2023-01-26T04:23:18.549Z,97905.63
2023-01-26T04:25:45.193Z,97905.88
2023-01-26T04:28:11.791Z,97902.91
2023-01-26T04:30:39.167Z,97907.59
2023-01-26T04:33:05.840Z,97900.25
2023-01-26T04:35:33.712Z,97895.88
2023-01-26T04:38:00.359Z,97895.38
2023-01-26T04:40:27.104Z,97897.06
2023-01-26T04:42:53.745Z,97900.97
2023-01-26T04:45:20.349Z,97893.88
2023-01-26T04:47:46.972Z,97892.09
2023-01-26T04:50:13.897Z,97886.75
2023-01-26T04:52:40.715Z,97887.31
2023-01-26T04:55:07.783Z,97879.97
2023-01-26T04:57:34.391Z,97886.03
2023-01-26T05:00:01.052Z,97889.22
2023-01-26T05:02:27.981Z,97889.72
2023-01-26T05:04:54.844Z,97877.97
2023-01-26T05:07:22.099Z,97875.72
2023-01-26T05:09:49.445Z,97868.16
2023-01-26T05:12:34.363Z,97872.59
2023-01-26T05:15:01.068Z,97867.47
2023-01-26T05:17:27.711Z,97872.13
2023-01-26T05:19:54.343Z,97870.16
2023-01-26T05:22:20.983Z,97882.25
2023-01-26T05:24:48.082Z,97881.28
2023-01-26T05:27:32.702Z,97883.91
2023-01-26T05:30:02.095Z,97886.34
2023-01-26T05:32:30.041Z,97883.41
2023-01-26T05:34:57.418Z,97876.34
2023-01-26T05:37:25.797Z,97880.97
2023-01-26T05:39:52.742Z,97866.31
2023-01-26T05:42:19.427Z,97877.06
2023-01-26T05:44:46.015Z,97877.56
2023-01-26T05:47:12.661Z,97876.09
2023-01-26T05:49:42.781Z,97872.88
2023-01-26T05:52:11.161Z,97878.75
2023-01-26T05:54:37.794Z,97880.94
2023-01-26T05:57:04.591Z,97883.38
2023-01-26T05:59:31.184Z,97883.91
2023-01-26T06:01:57.912Z,97888.31
2023-01-26T06:04:24.779Z,97890.25
2023-01-26T06:06:55.807Z,97884.88
2023-01-26T06:09:22.996Z,97890.03
2023-01-26T06:11:49.854Z,97893.16
2023-01-26T06:14:16.601Z,97893.13
2023-01-26T06:16:43.259Z,97893.88
2023-01-26T06:19:10.637Z,97876.00
2023-01-26T06:21:37.458Z,97879.91
2023-01-26T06:24:04.518Z,97888.00
2023-01-26T06:26:31.160Z,97891.41
2023-01-26T06:28:57.901Z,97890.91
2023-01-26T06:31:25.074Z,97884.81
2023-01-26T06:33:51.790Z,97887.53
2023-01-26T06:36:18.414Z,97878.47
2023-01-26T06:38:47.461Z,97875.53
2023-01-26T06:41:14.447Z,97880.94
2023-01-26T06:43:45.293Z,97882.19
2023-01-26T06:46:12.487Z,97884.16
2023-01-26T06:48:39.484Z,97884.41
2023-01-26T06:51:42.645Z,97885.88
2023-01-26T06:54:10.634Z,97884.63
2023-01-26T06:56:37.577Z,97884.16
2023-01-26T06:59:05.479Z,97884.16
2023-01-26T07:01:39.069Z,97881.69
2023-01-26T07:04:05.911Z,97885.59
2023-01-26T07:06:32.622Z,97880.72
2023-01-26T07:08:59.266Z,97885.38
2023-01-26T07:11:25.975Z,97887.81
2023-01-26T07:13:52.663Z,97884.84
2023-01-26T07:16:19.460Z,97888.72
2023-01-26T07:18:46.166Z,97890.47
2023-01-26T07:21:15.801Z,97889.66
2023-01-26T07:23:42.562Z,97890.16
2023-01-26T07:26:09.637Z,97891.88
2023-01-26T07:28:37.616Z,97891.41
2023-01-26T07:31:07.075Z,97885.25
2023-01-26T07:33:34.678Z,97881.09
2023-01-26T07:36:01.775Z,97888.94
2023-01-26T07:38:31.267Z,97886.97
2023-01-26T07:40:58.029Z,97884.78
2023-01-26T07:43:24.708Z,97888.22
2023-01-26T07:45:53.862Z,97881.91
2023-01-26T07:48:22.884Z,97879.97
2023-01-26T07:50:49.804Z,97880.44
2023-01-26T07:53:22.792Z,97880.69
2023-01-26T07:55:49.600Z,97884.63
2023-01-26T07:58:17.971Z,97882.88
2023-01-26T08:00:47.234Z,97879.00
2023-01-26T08:03:14.152Z,97878.00
2023-01-26T08:05:40.782Z,97870.16
2023-01-26T08:08:09.633Z,97871.38
2023-01-26T08:10:36.277Z,97864.06
2023-01-26T08:13:03.056Z,97870.41
2023-01-26T08:15:30.416Z,97863.09
2023-01-26T08:17:57.324Z,97863.31
2023-01-26T08:20:23.974Z,97872.13
2023-01-26T08:22:50.659Z,97870.16
2023-01-26T08:25:17.285Z,97866.00
2023-01-26T08:27:44.106Z,97865.28
2023-01-26T08:30:11.879Z,97870.41
2023-01-26T08:32:38.714Z,97870.69
2023-01-26T08:35:05.783Z,97870.19
2023-01-26T08:37:33.656Z,97869.97
2023-01-26T08:40:00.258Z,97867.03
2023-01-26T08:42:27.227Z,97872.72
2023-01-26T08:44:54.048Z,97867.28
2023-01-26T08:47:20.704Z,97869.69
2023-01-26T08:49:47.351Z,97866.53
2023-01-26T08:52:14.073Z,97868.47
2023-01-26T08:54:40.697Z,97867.47
2023-01-26T08:57:07.317Z,97869.22
2023-01-26T08:59:33.972Z,97868.00
2023-01-26T09:02:00.800Z,97865.31
2023-01-26T09:04:27.631Z,97862.34
2023-01-26T09:06:54.457Z,97866.00
2023-01-26T09:09:21.180Z,97869.69
2023-01-26T09:11:47.821Z,97866.78
2023-01-26T09:14:14.550Z,97864.84
2023-01-26T09:16:41.403Z,97865.06
2023-01-26T09:19:08.153Z,97857.00
2023-01-26T09:21:34.792Z,97865.59
2023-01-26T09:24:02.494Z,97861.44
2023-01-26T09:26:30.712Z,97863.38
2023-01-26T09:28:57.906Z,97866.09
2023-01-26T09:31:24.635Z,97867.06
2023-01-26T09:33:51.723Z,97856.56
2023-01-26T09:36:18.936Z,97861.69
2023-01-26T09:38:45.742Z,97860.69
2023-01-26T09:42:09.662Z,97862.66
2023-01-26T09:44:59.696Z,97857.03
2023-01-26T09:47:35.931Z,97854.56
2023-01-26T09:50:11.556Z,97860.47
2023-01-26T09:52:56.083Z,97865.63
2023-01-26T09:55:24.831Z,97855.84
2023-01-26T09:57:58.443Z,97858.75
2023-01-26T10:00:43.852Z,97858.25
2023-01-26T10:03:27.267Z,97846.50
2023-01-26T10:06:29.487Z,97844.31
2023-01-26T10:09:00.639Z,97852.13
2023-01-26T10:11:33.273Z,97843.84
2023-01-26T10:14:11.514Z,97838.94
2023-01-26T10:16:38.500Z,97831.31
2023-01-26T10:19:28.649Z,97835.72
2023-01-26T10:21:57.479Z,97838.66
2023-01-26T10:24:24.311Z,97836.00
2023-01-26T10:26:56.556Z,97831.09
2023-01-26T10:29:24.022Z,97829.63
2023-01-26T10:31:50.767Z,97826.69
2023-01-26T10:34:26.335Z,97825.94
2023-01-26T10:37:02.454Z,97820.31
2023-01-26T10:39:29.070Z,97819.81
2023-01-26T10:42:01.004Z,97814.47
2023-01-26T10:44:37.893Z,97812.00
2023-01-26T10:47:25.956Z,97813.75
2023-01-26T10:49:52.652Z,97818.13
2023-01-26T10:52:25.107Z,97817.91
2023-01-26T10:54:53.961Z,97815.97
2023-01-26T10:57:32.650Z,97809.59
2023-01-26T11:00:08.606Z,97808.84
2023-01-26T11:02:36.845Z,97810.81
2023-01-26T11:05:24.427Z,97805.19
2023-01-26T11:07:55.322Z,97808.38
2023-01-26T11:10:34.399Z,97804.94
2023-01-26T11:13:20.283Z,97804.69
2023-01-26T11:16:03.169Z,97807.16
2023-01-26T11:19:16.204Z,97794.41
2023-01-26T11:22:05.883Z,97790.00
2023-01-26T11:24:42.641Z,97786.84
2023-01-26T11:27:31.461Z,97779.72
2023-01-26T11:30:24.007Z,97782.66
2023-01-26T11:33:07.449Z,97775.34
2023-01-26T11:35:54.346Z,97774.09
2023-01-26T11:38:35.963Z,97771.41
2023-01-26T11:41:32.469Z,97768.00
2023-01-26T11:44:38.033Z,97764.53
2023-01-26T11:47:36.421Z,97760.38
2023-01-26T11:50:43.517Z,97760.13
2023-01-26T11:53:35.782Z,97760.34
2023-01-26T11:59:25.202Z,97747.88
2023-01-26T12:02:01.745Z,97745.41
2023-01-26T12:04:33.234Z,97744.44
2023-01-26T12:07:11.576Z,97747.59
2023-01-26T12:09:44.142Z,97753.25
2023-01-26T12:12:17.962Z,97743.22
2023-01-26T12:15:03.290Z,97736.63
2023-01-26T12:18:17.174Z,97728.53
2023-01-26T12:21:02.969Z,97726.06
2023-01-26T12:23:51.559Z,97720.38
2023-01-26T12:26:22.816Z,97717.69
2023-01-26T12:29:25.677Z,97717.41
2023-01-26T12:32:05.673Z,97721.06
2023-01-26T12:34:33.881Z,97716.66
2023-01-26T12:37:23.376Z,97718.44
2023-01-26T12:40:36.224Z,97721.19
2023-01-26T12:43:05.765Z,97722.91
2023-01-26T12:45:39.346Z,97723.19
2023-01-26T12:48:18.007Z,97726.34
2023-01-26T12:50:50.806Z,97725.66
2023-01-26T12:53:30.200Z,97729.31
2023-01-26T12:56:13.250Z,97728.81
2023-01-26T12:58:44.504Z,97725.88
2023-01-26T13:01:15.959Z,97736.41
2023-01-26T13:03:46.053Z,97718.06
2023-01-26T13:06:24.712Z,97724.94
2023-01-26T13:09:19.149Z,97728.81
2023-01-26T13:11:57.096Z,97723.44
2023-01-26T13:14:57.959Z,97725.91
2023-01-26T13:17:55.240Z,97728.34
2023-01-26T13:20:48.532Z,97732.97
2023-01-26T13:23:43.625Z,97730.06
2023-01-26T13:26:36.123Z,97730.31
2023-01-26T13:29:39.526Z,97723.94
2023-01-26T13:32:52.595Z,97721.72
2023-01-26T13:35:23.066Z,97729.56
2023-01-26T13:38:19.228Z,97734.69
2023-01-26T13:40:50.780Z,97729.56
2023-01-26T13:43:30.348Z,97732.75
2023-01-26T13:46:07.175Z,97733.00
2023-01-26T13:48:53.659Z,97739.59
2023-01-26T13:51:28.225Z,97739.81
2023-01-26T13:54:02.462Z,97736.16
2023-01-26T13:56:37.556Z,97737.16
2023-01-26T13:59:19.418Z,97740.81
2023-01-26T14:01:48.323Z,97739.09
2023-01-26T14:04:20.123Z,97734.22
2023-01-26T14:06:52.959Z,97740.06
2023-01-26T14:09:20.248Z,97744.00
2023-01-26T14:11:56.227Z,97742.03
2023-01-26T14:14:29.510Z,97745.44
2023-01-26T14:16:59.240Z,97739.81
2023-01-26T14:19:27.733Z,97743.25
2023-01-26T14:22:01.430Z,97743.50
2023-01-26T14:24:39.576Z,97743.25
2023-01-26T14:27:20.511Z,97740.56
2023-01-26T14:29:47.727Z,97736.16
2023-01-26T14:32:16.943Z,97742.25
2023-01-26T14:34:58.516Z,97740.31
2023-01-26T14:37:26.492Z,97735.66
2023-01-26T14:40:14.948Z,97736.63
2023-01-26T14:42:42.799Z,97741.06
2023-01-26T14:45:14.140Z,97738.59
2023-01-26T14:47:45.452Z,97737.88
2023-01-26T14:50:17.742Z,97740.56
2023-01-26T14:52:45.342Z,97739.59
2023-01-26T14:55:36.707Z,97740.06
2023-01-26T14:58:13.266Z,97740.06
2023-01-26T15:00:40.098Z,97737.34
2023-01-26T15:03:23.987Z,97730.03
2023-01-26T15:06:17.067Z,97732.00
2023-01-26T15:08:58.407Z,97739.06
2023-01-26T15:11:52.737Z,97740.78
2023-01-26T15:14:44.118Z,97737.63
2023-01-26T15:17:27.693Z,97743.97
2023-01-26T15:19:54.475Z,97741.53
2023-01-26T15:22:26.335Z,97735.88
2023-01-26T15:25:20.536Z,97731.47
2023-01-26T15:27:59.031Z,97742.47
2023-01-26T15:30:31.890Z,97732.97
2023-01-26T15:32:59.133Z,97732.22
2023-01-26T15:35:30.233Z,97735.66
2023-01-26T15:38:11.566Z,97740.75
2023-01-26T15:40:38.717Z,97744.41
2023-01-26T15:43:16.037Z,97744.94
2023-01-26T15:45:47.202Z,97746.88
2023-01-26T15:48:13.775Z,97750.53
2023-01-26T15:50:40.390Z,97752.75
2023-01-26T15:53:12.800Z,97760.81
2023-01-26T15:55:39.619Z,97756.19
2023-01-26T15:58:06.308Z,97746.41
2023-01-26T16:00:32.969Z,97746.16
2023-01-26T16:03:03.716Z,97748.63
2023-01-26T16:05:30.438Z,97739.06
2023-01-26T16:07:56.971Z,97742.00
2023-01-26T16:10:23.699Z,97748.13
2023-01-26T16:12:53.126Z,97733.69
2023-01-26T16:15:55.528Z,97738.56
2023-01-26T16:18:22.142Z,97745.91
2023-01-26T16:20:50.082Z,97750.28
2023-01-26T16:23:28.724Z,97751.53
2023-01-26T16:25:55.873Z,97751.53
2023-01-26T16:28:22.498Z,97756.44
2023-01-26T16:30:51.279Z,97747.13
2023-01-26T16:33:21.257Z,97754.94
2023-01-26T16:35:48.240Z,97758.84
2023-01-26T16:38:14.909Z,97754.19
2023-01-26T16:40:46.334Z,97758.59
2023-01-26T16:43:22.035Z,97764.97
2023-01-26T16:45:50.235Z,97757.66
2023-01-26T16:48:17.326Z,97758.66
2023-01-26T16:50:44.890Z,97753.75
2023-01-26T16:53:28.938Z,97745.94
2023-01-26T16:55:56.094Z,97750.09
2023-01-26T16:58:26.174Z,97754.22
2023-01-26T17:00:54.165Z,97759.59
2023-01-26T17:03:21.079Z,97756.63
2023-01-26T17:05:47.711Z,97751.75
2023-01-26T17:08:14.273Z,97754.44
2023-01-26T17:10:55.496Z,97756.41
2023-01-26T17:13:27.383Z,97756.44
2023-01-26T17:15:56.593Z,97752.50
2023-01-26T17:18:23.608Z,97743.94
2023-01-26T17:20:50.198Z,97753.00
2023-01-26T17:23:16.770Z,97750.78
2023-01-26T17:25:43.339Z,97750.06
2023-01-26T17:28:09.900Z,97750.50
2023-01-26T17:30:37.459Z,97757.38
2023-01-26T17:33:04.231Z,97750.03
2023-01-26T17:35:30.862Z,97748.84
2023-01-26T17:37:57.607Z,97753.66
2023-01-26T17:40:24.227Z,97750.50
2023-01-26T17:42:50.977Z,97751.00
2023-01-26T17:45:17.742Z,97756.34
2023-01-26T17:47:44.316Z,97757.34
2023-01-26T17:50:11.192Z,97756.41
2023-01-26T17:52:37.811Z,97750.28
2023-01-26T17:55:06.229Z,97746.63
2023-01-26T17:57:33.848Z,97749.06
2023-01-26T18:00:00.531Z,97738.56
2023-01-26T18:02:27.195Z,97738.59
2023-01-26T18:04:53.952Z,97738.09
2023-01-26T18:07:20.699Z,97737.84
2023-01-26T18:09:47.256Z,97746.66
2023-01-26T18:12:13.830Z,97748.84
2023-01-26T18:14:40.419Z,97744.41
2023-01-26T18:17:07.011Z,97746.63
2023-01-26T18:19:33.843Z,97752.78
2023-01-26T18:22:00.447Z,97741.50
2023-01-26T18:24:27.183Z,97744.22
2023-01-26T18:26:53.750Z,97751.53
2023-01-26T18:29:20.310Z,97746.16
2023-01-26T18:31:48.063Z,97746.66
2023-01-26T18:34:14.791Z,97754.47
2023-01-26T18:36:41.477Z,97753.75
2023-01-26T18:39:12.873Z,97744.22
2023-01-26T18:41:40.814Z,97748.13
2023-01-26T18:44:08.313Z,97752.25
2023-01-26T18:46:35.510Z,97753.75
2023-01-26T18:49:03.492Z,97749.31
2023-01-26T18:51:33.131Z,97752.50
2023-01-26T18:54:00.252Z,97754.72
2023-01-26T18:56:27.381Z,97756.19
2023-01-26T18:58:54.786Z,97754.72
2023-01-26T19:01:22.246Z,97749.06
2023-01-26T19:03:55.106Z,97751.28
2023-01-26T19:06:23.776Z,97750.56
2023-01-26T19:08:57.635Z,97752.50
2023-01-26T19:11:26.590Z,97748.09
2023-01-26T19:13:53.463Z,97748.59
2023-01-26T19:16:20.163Z,97750.78
2023-01-26T19:18:47.091Z,97750.53
2023-01-26T19:21:13.829Z,97752.72
2023-01-26T19:23:42.597Z,97750.78
2023-01-26T19:26:11.558Z,97746.63
2023-01-26T19:28:41.220Z,97740.25
2023-01-26T19:31:09.404Z,97740.97
2023-01-26T19:33:36.507Z,97729.00
2023-01-26T19:36:05.142Z,97726.78
2023-01-26T19:38:33.260Z,97730.72
2023-01-26T19:41:01.876Z,97734.88
2023-01-26T19:43:28.813Z,97719.97
2023-01-26T19:45:56.824Z,97722.91
2023-01-26T19:48:25.769Z,97727.78
2023-01-26T19:51:03.428Z,97726.06
2023-01-26T19:53:32.220Z,97720.69
2023-01-26T19:56:01.848Z,97719.22
2023-01-26T19:58:28.477Z,97718.97
2023-01-26T20:01:02.641Z,97723.13
2023-01-26T20:03:29.362Z,97726.53
2023-01-26T20:05:57.222Z,97724.09
2023-01-26T20:08:24.573Z,97728.03
2023-01-26T20:10:51.206Z,97723.38
2023-01-26T20:13:17.985Z,97727.78
2023-01-26T20:15:44.538Z,97732.22
2023-01-26T20:18:11.210Z,97723.13
2023-01-26T20:20:38.035Z,97735.13
2023-01-26T20:23:04.846Z,97727.31
2023-01-26T20:25:31.458Z,97732.00
2023-01-26T20:27:58.017Z,97730.00
2023-01-26T20:30:24.602Z,97734.88
2023-01-26T20:32:54.618Z,97723.38
2023-01-26T20:35:21.636Z,97727.53
2023-01-26T20:37:48.283Z,97731.69
2023-01-26T20:40:15.300Z,97732.66
2023-01-26T20:42:41.962Z,97723.59
2023-01-26T20:45:08.845Z,97722.84
2023-01-26T20:47:38.207Z,97717.50
2023-01-26T20:50:06.067Z,97723.13
2023-01-26T20:52:32.749Z,97722.41
2023-01-26T20:54:59.388Z,97712.38
2023-01-26T20:57:25.989Z,97714.56
2023-01-26T20:59:52.645Z,97709.44
2023-01-26T21:02:19.300Z,97712.63
2023-01-26T21:04:46.101Z,97716.31
2023-01-26T21:07:12.983Z,97715.06
2023-01-26T21:09:40.275Z,97718.06
2023-01-26T21:12:06.873Z,97711.94
2023-01-26T21:14:33.724Z,97704.34
2023-01-26T21:17:00.502Z,97705.34
2023-01-26T21:19:27.235Z,97706.06
2023-01-26T21:21:53.949Z,97708.75
2023-01-26T21:24:20.617Z,97710.94
2023-01-26T21:26:47.976Z,97711.91
2023-01-26T21:29:16.064Z,97712.38
2023-01-26T21:31:45.215Z,97708.00
2023-01-26T21:34:12.561Z,97711.91
2023-01-26T21:36:39.200Z,97709.69
2023-01-26T21:39:10.673Z,97712.41
2023-01-26T21:41:55.618Z,97717.28
2023-01-26T21:44:27.507Z,97709.22
2023-01-26T21:46:59.886Z,97711.91
2023-01-26T21:49:28.444Z,97704.56
2023-01-26T21:52:14.097Z,97710.22
2023-01-26T21:54:41.186Z,97704.59
2023-01-26T21:57:28.338Z,97703.13
2023-01-26T21:59:55.875Z,97700.44
2023-01-26T22:02:23.075Z,97702.88
2023-01-26T22:04:49.718Z,97706.78
2023-01-26T22:07:16.330Z,97708.50
2023-01-26T22:09:42.936Z,97705.09
2023-01-26T22:12:09.609Z,97710.47
2023-01-26T22:14:36.239Z,97708.03
2023-01-26T22:17:02.854Z,97710.94
2023-01-26T22:19:29.494Z,97710.47
2023-01-26T22:21:56.651Z,97712.16
2023-01-26T22:24:23.359Z,97711.91
2023-01-26T22:26:50.169Z,97708.75
2023-01-26T22:29:16.773Z,97702.41
2023-01-26T22:31:43.438Z,97704.56
2023-01-26T22:34:11.835Z,97706.28
2023-01-26T22:36:39.229Z,97700.91
2023-01-26T22:39:05.846Z,97692.13
2023-01-26T22:41:34.388Z,97693.09
2023-01-26T22:44:01.164Z,97691.63
2023-01-26T22:46:30.253Z,97692.59
2023-01-26T22:48:58.407Z,97691.88
2023-01-26T22:51:29.573Z,97694.34
2023-01-26T22:53:57.883Z,97697.25
2023-01-26T22:56:25.185Z,97696.28
2023-01-26T22:58:59.060Z,97696.53
2023-01-26T23:01:31.550Z,97694.81
2023-01-26T23:03:59.170Z,97696.50
2023-01-26T23:06:26.334Z,97693.59
2023-01-26T23:08:53.509Z,97695.53
2023-01-26T23:11:25.409Z,97701.16
2023-01-26T23:13:53.444Z,97700.19
2023-01-26T23:16:21.386Z,97698.47
2023-01-26T23:18:48.062Z,97697.00
2023-01-26T23:21:14.748Z,97695.03
2023-01-26T23:23:41.658Z,97698.94
2023-01-26T23:26:09.613Z,97692.59
2023-01-26T23:28:38.523Z,97690.88
2023-01-26T23:31:05.803Z,97686.72
2023-01-26T23:33:34.153Z,97691.34
2023-01-26T23:36:01.026Z,97692.59
2023-01-26T23:38:29.277Z,97688.94
2023-01-26T23:40:56.405Z,97690.91
2023-01-26T23:43:23.602Z,97691.66
2023-01-26T23:45:50.878Z,97686.00
2023-01-26T23:48:18.272Z,97694.06
2023-01-26T23:50:45.314Z,97688.69
2023-01-26T23:53:12.618Z,97689.66
2023-01-26T23:55:43.490Z,97685.25
2023-01-26T23:58:11.245Z,97689.91
